KONA/ONA METAR and TAF weather

Enter ICAO airport designator
Station Type Date Time Source
KONA METAR 2022/01/29 09:55 UTC NOAA

KONA 290955Z AUTO 14007KT 10SM OVC034 M10/M13 A3016 RMK AO2


Station Type Date Time Source
KONA Decoded METAR 2022/01/29 09:55 UTC NOAA

Winona, Winona Municipal Airport-Max Conrad Field, MN, United States (KONA) 44-05N 091-42W
Jan 29, 2022 - 04:55 AM EST / 2022.01.29 0955 UTC
Wind: from the SE (140 degrees) at 8 MPH (7 KT):0
Visibility: 10 mile(s):0
Sky conditions: overcast
Temperature: 14 F (-10 C)
Windchill: 3 F (-16 C):1
Dew Point: 8 F (-13 C)
Relative Humidity: 78%
Pressure (altimeter): 30.16 in. Hg (1021 hPa)
ob: KONA 290955Z AUTO 14007KT 10SM OVC034 M10/M13 A3016 RMK AO2
cycle: 10

Station Type Date Time Source
KONA TAF UTC NOAA

Error!

Example: see airport list